Berit — ZDHX2 — position and weather

sailwx.info

Track history (hours):
 
Tides and Currents Weather Stations Pressure Air Temp Water Temp Dewpoint Dewpoint Depression Visibility Wind Speed Wind Dir Waves Ship Positions

Berit

Last reported at 2017-Feb-23 06:05 UTC. Time now 2017-Feb-23 07:03 UTC.
Position N 52°26' E 003°60'.

Length 83 m; draft 4.3 m.

Type: Cargo ship. MMSI: 236386000.

Date/timePositionNaut miles runAvg speedWind from/ knotsBaromVisibWave heightAir tempDewpointWater temp
2017-Feb-23 06:05N 52°26' E 003°60'1 2.6
2017-Feb-23 05:32N 52°26' E 004°02'2 2.5
2017-Feb-23 04:33N 52°26' E 004°06'2 2.4
2017-Feb-23 03:33N 52°27' E 004°09'8 8.3
2017-Feb-23 02:33N 52°35' E 004°05'  
2017-Feb-19 14:08N 58°31' W 002°48'611.1
2017-Feb-19 13:33N 58°36' W 002°55'1111.1
2017-Feb-19 12:34N 58°43' W 003°11'1010.2
2017-Feb-19 11:33N 58°44' W 003°31'1010.3
2017-Feb-19 10:34N 58°45' W 003°51'1010.4
2017-Feb-19 09:33N 58°45' W 004°11'199 8.7
2017-Feb-18 10:33N 55°47' W 006°55'1010.4
2017-Feb-18 09:33N 55°38' W 006°47'1110.5
2017-Feb-18 08:33N 55°32' W 006°32'1111.4
2017-Feb-18 07:33N 55°26' W 006°14'1211.7
2017-Feb-18 06:33N 55°20' W 005°57'2612.4
2017-Feb-18 04:26N 54°57' W 005°33'910.6
2017-Feb-18 03:33N 54°49' W 005°27'10 9.9
2017-Feb-18 02:33N 54°39' W 005°21'10 9.9
2017-Feb-18 01:33N 54°30' W 005°15'10 9.8
2017-Feb-18 00:34N 54°21' W 005°10'6410.2
2017-Feb-17 18:13N 53°37' W 003°50'711.2
2017-Feb-17 17:33N 53°34' W 003°38'1111.1
2017-Feb-17 16:33N 53°32' W 003°20'10 9.6
2017-Feb-17 15:33N 53°29' W 003°05'6 6.4
2017-Feb-17 14:33N 53°23' W 003°01'0 0.0
2017-Feb-17 13:30N 53°23' W 003°01'0 0.0
2017-Feb-17 12:33N 53°23' W 003°01'0 0.0
2017-Feb-17 11:33N 53°23' W 003°01'0 0.0
2017-Feb-17 10:33N 53°23' W 003°01'0 0.0
2017-Feb-17 09:30N 53°23' W 003°01'0 0.0
2017-Feb-17 08:30N 53°23' W 003°01'0 0.0
2017-Feb-17 07:30N 53°23' W 003°01'0 0.0
2017-Feb-17 06:33N 53°23' W 003°01'0 0.0
2017-Feb-17 05:33N 53°23' W 003°01'0 0.0
2017-Feb-17 04:33N 53°23' W 003°01'0 0.0
2017-Feb-17 03:33N 53°23' W 003°01'0 0.0
2017-Feb-17 02:33N 53°23' W 003°01'0 0.0
2017-Feb-17 01:30N 53°23' W 003°01'0 0.0
2017-Feb-17 00:33N 53°23' W 003°01'0 0.0
2017-Feb-16 23:33N 53°23' W 003°01'0 0.0
2017-Feb-16 22:33N 53°23' W 003°01'0 0.0
2017-Feb-16 21:24N 53°23' W 003°01'0 0.0
2017-Feb-16 20:33N 53°23' W 003°01'0 0.0
2017-Feb-16 19:21N 53°23' W 003°01'0 0.0
2017-Feb-16 18:30N 53°23' W 003°01'0 0.0
2017-Feb-16 17:30N 53°23' W 003°01'0 0.0
2017-Feb-16 16:33N 53°23' W 003°01'0 0.0
2017-Feb-16 15:33N 53°23' W 003°01'0 0.0
2017-Feb-16 14:33N 53°23' W 003°01'0 0.0
2017-Feb-16 13:33N 53°23' W 003°01'0 0.0
2017-Feb-16 12:33N 53°23' W 003°01'0 0.0
2017-Feb-16 11:33N 53°23' W 003°01'0 0.0
2017-Feb-16 10:33N 53°23' W 003°01'0 0.0
2017-Feb-16 09:33N 53°23' W 003°01'0 0.0
2017-Feb-16 08:33N 53°23' W 003°01'0 0.0
2017-Feb-16 07:33N 53°23' W 003°01'0 0.0
2017-Feb-16 06:33N 53°23' W 003°01'0 0.0
2017-Feb-16 05:33N 53°23' W 003°01'0 0.0
2017-Feb-16 04:33N 53°23' W 003°01'0 0.0
2017-Feb-16 03:33N 53°23' W 003°01'0 0.0
2017-Feb-16 02:33N 53°23' W 003°01'0 0.0
2017-Feb-16 01:33N 53°23' W 003°01'0 0.0
2017-Feb-16 00:33N 53°23' W 003°01'0 0.0
2017-Feb-15 23:33N 53°23' W 003°01'0 0.0
2017-Feb-15 22:33N 53°23' W 003°01'0 0.0
2017-Feb-15 21:33N 53°23' W 003°01'0 0.0
2017-Feb-15 20:33N 53°23' W 003°01'0 0.0
2017-Feb-15 19:33N 53°23' W 003°01'0 0.0
2017-Feb-15 18:27N 53°23' W 003°01'0 0.0
2017-Feb-15 17:30N 53°23' W 003°01'0 0.0
2017-Feb-15 16:33N 53°23' W 003°01'0 0.0
2017-Feb-15 15:33N 53°23' W 003°01'0 0.0
2017-Feb-15 14:30N 53°23' W 003°01'0 0.0
2017-Feb-15 13:30N 53°23' W 003°01'0 0.0
2017-Feb-15 12:30N 53°23' W 003°01'0 0.0
2017-Feb-15 11:33N 53°23' W 003°01'0 0.0
2017-Feb-15 10:33N 53°23' W 003°01'0 0.0
2017-Feb-15 09:33N 53°23' W 003°01'0 0.0
2017-Feb-15 08:33N 53°23' W 003°01'0 0.0
2017-Feb-15 07:30N 53°23' W 003°01'0 0.0
2017-Feb-15 06:27N 53°23' W 003°01'0 0.0
2017-Feb-15 05:33N 53°23' W 003°01'0 0.0
2017-Feb-15 04:33N 53°23' W 003°01'0 0.0
2017-Feb-15 03:33N 53°23' W 003°01'0 0.0
2017-Feb-15 02:33N 53°23' W 003°01'0 0.0
2017-Feb-15 01:30N 53°23' W 003°01'0 0.0
2017-Feb-15 00:33N 53°23' W 003°01'0 0.0
2017-Feb-14 23:33N 53°23' W 003°01'0 0.0
2017-Feb-14 22:30N 53°23' W 003°01'0 0.0
2017-Feb-14 21:33N 53°23' W 003°01'0 0.0
2017-Feb-14 20:33N 53°23' W 003°01'0 0.0
2017-Feb-14 19:33N 53°23' W 003°01'0 0.0
2017-Feb-14 18:33N 53°23' W 003°01'0 0.0
2017-Feb-14 17:33N 53°23' W 003°01'0 0.0
2017-Feb-14 16:33N 53°23' W 003°01'0 0.0
2017-Feb-14 15:30N 53°23' W 003°01'0 0.0
2017-Feb-14 14:30N 53°23' W 003°01'0 0.0
2017-Feb-14 13:33N 53°23' W 003°01'0 0.0
2017-Feb-14 12:33N 53°23' W 003°01'0 0.0
2017-Feb-14 11:33N 53°23' W 003°01'0 0.0
2017-Feb-14 10:30N 53°23' W 003°01'0 0.0
2017-Feb-14 09:30N 53°23' W 003°01'0 0.0
2017-Feb-14 08:30N 53°23' W 003°01'0 0.0
2017-Feb-14 07:33N 53°23' W 003°01'0 0.0
2017-Feb-14 06:33N 53°23' W 003°01'0 0.0
2017-Feb-14 05:30N 53°23' W 003°01'0 0.0
2017-Feb-14 04:33N 53°23' W 003°01'0 0.0
2017-Feb-14 03:30N 53°23' W 003°01'0 0.0
2017-Feb-14 02:30N 53°23' W 003°01'0 0.0
2017-Feb-14 01:33N 53°23' W 003°01'0 0.0
2017-Feb-14 00:33N 53°23' W 003°01'0 0.0
2017-Feb-13 23:30N 53°23' W 003°01'0 0.0
2017-Feb-13 22:33N 53°23' W 003°01'0 0.0
2017-Feb-13 21:30N 53°23' W 003°01'0 0.0
2017-Feb-13 20:33N 53°23' W 003°01'0 0.0
2017-Feb-13 19:30N 53°23' W 003°01'0 0.0
2017-Feb-13 18:33N 53°23' W 003°01'0 0.0
2017-Feb-13 17:30N 53°23' W 003°01'0 0.0
2017-Feb-13 16:30N 53°23' W 003°01'0 0.0
2017-Feb-13 15:33N 53°23' W 003°01'0 0.0
2017-Feb-13 14:33N 53°23' W 003°01'0 0.0
2017-Feb-13 13:33N 53°23' W 003°01'0 0.0
2017-Feb-13 12:33N 53°23' W 003°01'0 0.0
2017-Feb-13 11:33N 53°23' W 003°01'0 0.0
2017-Feb-13 10:33N 53°23' W 003°01'0 0.0
2017-Feb-13 09:33N 53°23' W 003°01'0 0.0
2017-Feb-13 08:33N 53°23' W 003°01'0 0.0
2017-Feb-13 07:30N 53°23' W 003°01'0 0.0
2017-Feb-13 06:24N 53°23' W 003°01'  
Track history (hours):
 
Tides and Currents Weather Stations Pressure Air Temp Water Temp Dewpoint Dewpoint Depression Visibility Wind Speed Wind Dir Waves Ship Positions

Berit

Last reported at 2017-Feb-23 06:05 UTC. Time now 2017-Feb-23 07:03 UTC.
Position N 52°26' E 003°60'.

Length 83 m; draft 4.3 m.

Type: Cargo ship. MMSI: 236386000.

Date/timePositionNaut miles runAvg speedWind from/ knotsBaromVisibWave heightAir tempDewpointWater temp
2017-Feb-23 06:05N 52°26' E 003°60'1 2.6
2017-Feb-23 05:32N 52°26' E 004°02'2 2.5
2017-Feb-23 04:33N 52°26' E 004°06'2 2.4
2017-Feb-23 03:33N 52°27' E 004°09'8 8.3
2017-Feb-23 02:33N 52°35' E 004°05'  
2017-Feb-19 14:08N 58°31' W 002°48'611.1
2017-Feb-19 13:33N 58°36' W 002°55'1111.1
2017-Feb-19 12:34N 58°43' W 003°11'1010.2
2017-Feb-19 11:33N 58°44' W 003°31'1010.3
2017-Feb-19 10:34N 58°45' W 003°51'1010.4
2017-Feb-19 09:33N 58°45' W 004°11'199 8.7
2017-Feb-18 10:33N 55°47' W 006°55'1010.4
2017-Feb-18 09:33N 55°38' W 006°47'1110.5
2017-Feb-18 08:33N 55°32' W 006°32'1111.4
2017-Feb-18 07:33N 55°26' W 006°14'1211.7
2017-Feb-18 06:33N 55°20' W 005°57'2612.4
2017-Feb-18 04:26N 54°57' W 005°33'910.6
2017-Feb-18 03:33N 54°49' W 005°27'10 9.9
2017-Feb-18 02:33N 54°39' W 005°21'10 9.9
2017-Feb-18 01:33N 54°30' W 005°15'10 9.8
2017-Feb-18 00:34N 54°21' W 005°10'6410.2
2017-Feb-17 18:13N 53°37' W 003°50'711.2
2017-Feb-17 17:33N 53°34' W 003°38'1111.1
2017-Feb-17 16:33N 53°32' W 003°20'10 9.6
2017-Feb-17 15:33N 53°29' W 003°05'6 6.4
2017-Feb-17 14:33N 53°23' W 003°01'0 0.0
2017-Feb-17 13:30N 53°23' W 003°01'0 0.0
2017-Feb-17 12:33N 53°23' W 003°01'0 0.0
2017-Feb-17 11:33N 53°23' W 003°01'0 0.0
2017-Feb-17 10:33N 53°23' W 003°01'0 0.0
2017-Feb-17 09:30N 53°23' W 003°01'0 0.0
2017-Feb-17 08:30N 53°23' W 003°01'0 0.0
2017-Feb-17 07:30N 53°23' W 003°01'0 0.0
2017-Feb-17 06:33N 53°23' W 003°01'0 0.0
2017-Feb-17 05:33N 53°23' W 003°01'0 0.0
2017-Feb-17 04:33N 53°23' W 003°01'0 0.0
2017-Feb-17 03:33N 53°23' W 003°01'0 0.0
2017-Feb-17 02:33N 53°23' W 003°01'0 0.0
2017-Feb-17 01:30N 53°23' W 003°01'0 0.0
2017-Feb-17 00:33N 53°23' W 003°01'0 0.0
2017-Feb-16 23:33N 53°23' W 003°01'0 0.0
2017-Feb-16 22:33N 53°23' W 003°01'0 0.0
2017-Feb-16 21:24N 53°23' W 003°01'0 0.0
2017-Feb-16 20:33N 53°23' W 003°01'0 0.0
2017-Feb-16 19:21N 53°23' W 003°01'0 0.0
2017-Feb-16 18:30N 53°23' W 003°01'0 0.0
2017-Feb-16 17:30N 53°23' W 003°01'0 0.0
2017-Feb-16 16:33N 53°23' W 003°01'0 0.0
2017-Feb-16 15:33N 53°23' W 003°01'0 0.0
2017-Feb-16 14:33N 53°23' W 003°01'0 0.0
2017-Feb-16 13:33N 53°23' W 003°01'0 0.0
2017-Feb-16 12:33N 53°23' W 003°01'0 0.0
2017-Feb-16 11:33N 53°23' W 003°01'0 0.0
2017-Feb-16 10:33N 53°23' W 003°01'0 0.0
2017-Feb-16 09:33N 53°23' W 003°01'0 0.0
2017-Feb-16 08:33N 53°23' W 003°01'0 0.0
2017-Feb-16 07:33N 53°23' W 003°01'0 0.0
2017-Feb-16 06:33N 53°23' W 003°01'0 0.0
2017-Feb-16 05:33N 53°23' W 003°01'0 0.0
2017-Feb-16 04:33N 53°23' W 003°01'0 0.0
2017-Feb-16 03:33N 53°23' W 003°01'0 0.0
2017-Feb-16 02:33N 53°23' W 003°01'0 0.0
2017-Feb-16 01:33N 53°23' W 003°01'0 0.0
2017-Feb-16 00:33N 53°23' W 003°01'0 0.0
2017-Feb-15 23:33N 53°23' W 003°01'0 0.0
2017-Feb-15 22:33N 53°23' W 003°01'0 0.0
2017-Feb-15 21:33N 53°23' W 003°01'0 0.0
2017-Feb-15 20:33N 53°23' W 003°01'0 0.0
2017-Feb-15 19:33N 53°23' W 003°01'0 0.0
2017-Feb-15 18:27N 53°23' W 003°01'0 0.0
2017-Feb-15 17:30N 53°23' W 003°01'0 0.0
2017-Feb-15 16:33N 53°23' W 003°01'0 0.0
2017-Feb-15 15:33N 53°23' W 003°01'0 0.0
2017-Feb-15 14:30N 53°23' W 003°01'0 0.0
2017-Feb-15 13:30N 53°23' W 003°01'0 0.0
2017-Feb-15 12:30N 53°23' W 003°01'0 0.0
2017-Feb-15 11:33N 53°23' W 003°01'0 0.0
2017-Feb-15 10:33N 53°23' W 003°01'0 0.0
2017-Feb-15 09:33N 53°23' W 003°01'0 0.0
2017-Feb-15 08:33N 53°23' W 003°01'0 0.0
2017-Feb-15 07:30N 53°23' W 003°01'0 0.0
2017-Feb-15 06:27N 53°23' W 003°01'0 0.0
2017-Feb-15 05:33N 53°23' W 003°01'0 0.0
2017-Feb-15 04:33N 53°23' W 003°01'0 0.0
2017-Feb-15 03:33N 53°23' W 003°01'0 0.0
2017-Feb-15 02:33N 53°23' W 003°01'0 0.0
2017-Feb-15 01:30N 53°23' W 003°01'0 0.0
2017-Feb-15 00:33N 53°23' W 003°01'0 0.0
2017-Feb-14 23:33N 53°23' W 003°01'0 0.0
2017-Feb-14 22:30N 53°23' W 003°01'0 0.0
2017-Feb-14 21:33N 53°23' W 003°01'0 0.0
2017-Feb-14 20:33N 53°23' W 003°01'0 0.0
2017-Feb-14 19:33N 53°23' W 003°01'0 0.0
2017-Feb-14 18:33N 53°23' W 003°01'0 0.0
2017-Feb-14 17:33N 53°23' W 003°01'0 0.0
2017-Feb-14 16:33N 53°23' W 003°01'0 0.0
2017-Feb-14 15:30N 53°23' W 003°01'0 0.0
2017-Feb-14 14:30N 53°23' W 003°01'0 0.0
2017-Feb-14 13:33N 53°23' W 003°01'0 0.0
2017-Feb-14 12:33N 53°23' W 003°01'0 0.0
2017-Feb-14 11:33N 53°23' W 003°01'0 0.0
2017-Feb-14 10:30N 53°23' W 003°01'0 0.0
2017-Feb-14 09:30N 53°23' W 003°01'0 0.0
2017-Feb-14 08:30N 53°23' W 003°01'0 0.0
2017-Feb-14 07:33N 53°23' W 003°01'0 0.0
2017-Feb-14 06:33N 53°23' W 003°01'0 0.0
2017-Feb-14 05:30N 53°23' W 003°01'0 0.0
2017-Feb-14 04:33N 53°23' W 003°01'0 0.0
2017-Feb-14 03:30N 53°23' W 003°01'0 0.0
2017-Feb-14 02:30N 53°23' W 003°01'0 0.0
2017-Feb-14 01:33N 53°23' W 003°01'0 0.0
2017-Feb-14 00:33N 53°23' W 003°01'0 0.0
2017-Feb-13 23:30N 53°23' W 003°01'0 0.0
2017-Feb-13 22:33N 53°23' W 003°01'0 0.0
2017-Feb-13 21:30N 53°23' W 003°01'0 0.0
2017-Feb-13 20:33N 53°23' W 003°01'0 0.0
2017-Feb-13 19:30N 53°23' W 003°01'0 0.0
2017-Feb-13 18:33N 53°23' W 003°01'0 0.0
2017-Feb-13 17:30N 53°23' W 003°01'0 0.0
2017-Feb-13 16:30N 53°23' W 003°01'0 0.0
2017-Feb-13 15:33N 53°23' W 003°01'0 0.0
2017-Feb-13 14:33N 53°23' W 003°01'0 0.0
2017-Feb-13 13:33N 53°23' W 003°01'0 0.0
2017-Feb-13 12:33N 53°23' W 003°01'0 0.0
2017-Feb-13 11:33N 53°23' W 003°01'0 0.0
2017-Feb-13 10:33N 53°23' W 003°01'0 0.0
2017-Feb-13 09:33N 53°23' W 003°01'0 0.0
2017-Feb-13 08:33N 53°23' W 003°01'0 0.0
2017-Feb-13 07:30N 53°23' W 003°01'0 0.0
2017-Feb-13 06:24N 53°23' W 003°01'  

Dump ship's entire track history